M/V Ian Earle — WDD9798 — position and weather

sailwx.info

Track history (hours):
 
Tides and Currents Weather Stations Pressure Air Temp Water Temp Dewpoint Dewpoint Depression Visibility Wind Speed Wind Dir Waves Ship Positions

M/V Ian Earle

Owner: The Tug Ian Earle, L.L.C., Channelview, TX. More information available from US FCC via Universal Licensing System and Coast Guard Vessel Documentation Center.

Last reported at 2018-Jan-19 16:27 UTC. Time now 2018-Jan-20 02:47 UTC.
Position N 29°45' W 095°06'.

Length 23 m.

Type: Other ship. MMSI: 367316480.

Date/timePositionNaut miles runAvg speedWind from/ knotsBaromVisibWave heightAir tempDewpointWater temp
2018-Jan-19 16:27N 29°45' W 095°06'4 0.3
2018-Jan-19 00:14N 29°43' W 095°01'0 0.2
2018-Jan-19 00:00N 29°43' W 095°01'  
2018-Jan-12 14:58N 29°44' W 095°01'0 0.0
2018-Jan-12 14:19N 29°44' W 095°01'0 0.0
2018-Jan-12 13:50N 29°44' W 095°01'0 0.0
2018-Jan-12 12:26N 29°44' W 095°01'0 0.0
2018-Jan-12 11:36N 29°44' W 095°01'0 0.0
2018-Jan-12 11:12N 29°44' W 095°01'0 0.1
2018-Jan-12 10:49N 29°44' W 095°01'0 0.0
2018-Jan-11 20:42N 29°44' W 095°01'1 4.1
2018-Jan-11 20:30N 29°44' W 095°02'4 0.3
2018-Jan-11 06:57N 29°46' W 095°06'0 0.8
2018-Jan-11 06:29N 29°46' W 095°06'2 3.2
2018-Jan-11 05:44N 29°47' W 095°04'0 0.1
2018-Jan-11 05:29N 29°47' W 095°04'1 1.8
2018-Jan-11 04:49N 29°46' W 095°05'2 0.3
2018-Jan-10 21:42N 29°45' W 095°06'1 3.3
2018-Jan-10 21:23N 29°44' W 095°07'2 3.8
2018-Jan-10 20:59N 29°45' W 095°06'3 5.6
2018-Jan-10 20:30N 29°44' W 095°03'2 3.7
2018-Jan-10 19:58N 29°43' W 095°01'3 7.2
2018-Jan-10 19:30N 29°40' W 094°59'4 7.7
2018-Jan-10 19:00N 29°37' W 094°57'4 7.7
2018-Jan-10 18:30N 29°33' W 094°55'2 4.3
2018-Jan-10 18:00N 29°32' W 094°53'2 4.6
2018-Jan-10 17:30N 29°30' W 094°52'1 0.1
2018-Jan-10 02:02N 29°31' W 094°53'0 7.4
2018-Jan-10 02:00N 29°31' W 094°53'4 7.4
2018-Jan-10 01:30N 29°34' W 094°55'4 7.4
2018-Jan-10 01:00N 29°37' W 094°58'4 7.6
2018-Jan-10 00:30N 29°41' W 094°59'3 6.7
2018-Jan-10 00:00N 29°44' W 095°01'3 6.3
2018-Jan-09 23:29N 29°46' W 095°04'1 0.2
2018-Jan-09 18:42N 29°46' W 095°06'1 5.2
2018-Jan-09 18:30N 29°46' W 095°05'1 1.1
2018-Jan-09 17:49N 29°46' W 095°05'2 5.2
2018-Jan-09 17:30N 29°45' W 095°06'3 5.9
2018-Jan-09 17:00N 29°45' W 095°10'3 5.0
2018-Jan-09 16:27N 29°44' W 095°13'  
Track history (hours):
 
Tides and Currents Weather Stations Pressure Air Temp Water Temp Dewpoint Dewpoint Depression Visibility Wind Speed Wind Dir Waves Ship Positions

M/V Ian Earle

Owner: The Tug Ian Earle, L.L.C., Channelview, TX. More information available from US FCC via Universal Licensing System and Coast Guard Vessel Documentation Center.

Last reported at 2018-Jan-19 16:27 UTC. Time now 2018-Jan-20 02:47 UTC.
Position N 29°45' W 095°06'.

Length 23 m.

Type: Other ship. MMSI: 367316480.

Date/timePositionNaut miles runAvg speedWind from/ knotsBaromVisibWave heightAir tempDewpointWater temp
2018-Jan-19 16:27N 29°45' W 095°06'4 0.3
2018-Jan-19 00:14N 29°43' W 095°01'0 0.2
2018-Jan-19 00:00N 29°43' W 095°01'  
2018-Jan-12 14:58N 29°44' W 095°01'0 0.0
2018-Jan-12 14:19N 29°44' W 095°01'0 0.0
2018-Jan-12 13:50N 29°44' W 095°01'0 0.0
2018-Jan-12 12:26N 29°44' W 095°01'0 0.0
2018-Jan-12 11:36N 29°44' W 095°01'0 0.0
2018-Jan-12 11:12N 29°44' W 095°01'0 0.1
2018-Jan-12 10:49N 29°44' W 095°01'0 0.0
2018-Jan-11 20:42N 29°44' W 095°01'1 4.1
2018-Jan-11 20:30N 29°44' W 095°02'4 0.3
2018-Jan-11 06:57N 29°46' W 095°06'0 0.8
2018-Jan-11 06:29N 29°46' W 095°06'2 3.2
2018-Jan-11 05:44N 29°47' W 095°04'0 0.1
2018-Jan-11 05:29N 29°47' W 095°04'1 1.8
2018-Jan-11 04:49N 29°46' W 095°05'2 0.3
2018-Jan-10 21:42N 29°45' W 095°06'1 3.3
2018-Jan-10 21:23N 29°44' W 095°07'2 3.8
2018-Jan-10 20:59N 29°45' W 095°06'3 5.6
2018-Jan-10 20:30N 29°44' W 095°03'2 3.7
2018-Jan-10 19:58N 29°43' W 095°01'3 7.2
2018-Jan-10 19:30N 29°40' W 094°59'4 7.7
2018-Jan-10 19:00N 29°37' W 094°57'4 7.7
2018-Jan-10 18:30N 29°33' W 094°55'2 4.3
2018-Jan-10 18:00N 29°32' W 094°53'2 4.6
2018-Jan-10 17:30N 29°30' W 094°52'1 0.1
2018-Jan-10 02:02N 29°31' W 094°53'0 7.4
2018-Jan-10 02:00N 29°31' W 094°53'4 7.4
2018-Jan-10 01:30N 29°34' W 094°55'4 7.4
2018-Jan-10 01:00N 29°37' W 094°58'4 7.6
2018-Jan-10 00:30N 29°41' W 094°59'3 6.7
2018-Jan-10 00:00N 29°44' W 095°01'3 6.3
2018-Jan-09 23:29N 29°46' W 095°04'1 0.2
2018-Jan-09 18:42N 29°46' W 095°06'1 5.2
2018-Jan-09 18:30N 29°46' W 095°05'1 1.1
2018-Jan-09 17:49N 29°46' W 095°05'2 5.2
2018-Jan-09 17:30N 29°45' W 095°06'3 5.9
2018-Jan-09 17:00N 29°45' W 095°10'3 5.0
2018-Jan-09 16:27N 29°44' W 095°13'  

Dump ship's entire track history